Flinterbrise — PHCA — position and weather

sailwx.info

Track history (hours):
 
Tides and Currents Weather Stations Pressure Air Temp Water Temp Dewpoint Dewpoint Depression Visibility Wind Speed Wind Dir Waves Ship Positions

Flinterbrise

Last reported at 2014-Aug-27 07:30 UTC. Time now 2014-Sep-02 21:26 UTC.
Position N 57°20' E 017°42'.

Length 81 m; draft 5.1 m.

Type: Ship. MMSI: 246044000.

Date/timePositionNaut miles runAvg speedWind from/ knotsBaromVisibWave heightAir tempDewpointWater temp
2014-Aug-27 07:30N 57°20' E 017°42'8 8.5
2014-Aug-27 06:33N 57°13' E 017°37'10 8.3
2014-Aug-27 05:24N 57°04' E 017°31'131 8.6
2014-Aug-26 14:12N 55°28' E 014°52'8 9.2
2014-Aug-26 13:21N 55°24' E 014°40'8 9.2
2014-Aug-26 12:30N 55°18' E 014°31'9 9.5
2014-Aug-26 11:33N 55°11' E 014°21'29 8.9
2014-Aug-26 08:18N 54°55' E 013°38'25 9.0
2014-Aug-26 05:31N 54°47' E 012°56'8 8.8
2014-Aug-26 04:33N 54°44' E 012°43'9 9.1
2014-Aug-26 03:33N 54°39' E 012°30'9 8.9
2014-Aug-26 02:33N 54°34' E 012°18'9 9.2
2014-Aug-26 01:33N 54°25' E 012°11'9 9.3
2014-Aug-26 00:33N 54°25' E 011°55'87 7.8
2014-Aug-25 13:22N 54°11' E 009°27'6 7.6
2014-Aug-25 12:33N 54°06' E 009°20'6 6.1
2014-Aug-25 11:33N 54°00' E 009°18'8 8.2
2014-Aug-25 10:33N 53°54' E 009°09'1 0.8
2014-Aug-25 09:33N 53°53' E 009°08'4 3.8
2014-Aug-25 08:33N 53°52' E 009°02'9 8.5
2014-Aug-25 07:33N 53°50' E 008°48'8 7.5
2014-Aug-25 06:33N 53°56' E 008°39'7 7.1
2014-Aug-25 05:33N 53°59' E 008°28'8 8.0
2014-Aug-25 04:33N 53°59' E 008°15'9 8.6
2014-Aug-25 03:33N 53°58' E 008°00'8 8.2
2014-Aug-25 02:33N 53°57' E 007°46'65 9.0
2014-Aug-24 19:20N 53°40' E 005°59'810.1
2014-Aug-24 18:33N 53°38' E 005°47'1010.4
2014-Aug-24 17:33N 53°35' E 005°30'1010.5
2014-Aug-24 16:33N 53°31' E 005°13'1010.0
2014-Aug-24 15:33N 53°28' E 004°58'10 9.7
2014-Aug-24 14:30N 53°23' E 004°42'73 8.1
2014-Aug-24 05:29N 52°17' E 003°52'8 9.0
2014-Aug-24 04:33N 52°09' E 003°54'9 9.0
2014-Aug-24 03:34N 52°01' E 004°01'9 8.9
2014-Aug-24 02:33N 51°56' E 004°13'8 7.5
2014-Aug-24 01:33N 51°53' E 004°24'1 0.5
2014-Aug-24 00:14N 51°53' E 004°25'0 0.0
2014-Aug-23 23:32N 51°53' E 004°25'0 0.0
2014-Aug-23 22:32N 51°53' E 004°25'0 0.0
2014-Aug-23 20:25N 51°53' E 004°25'0 0.1
2014-Aug-23 19:27N 51°53' E 004°25'2 0.2
2014-Aug-23 03:31N 51°54' E 004°28'0 0.0
2014-Aug-23 02:31N 51°54' E 004°28'0 0.0
2014-Aug-23 01:33N 51°54' E 004°28'0 0.0
2014-Aug-23 00:33N 51°54' E 004°28'0 0.0
2014-Aug-22 23:32N 51°54' E 004°28'0 0.0
2014-Aug-22 22:32N 51°54' E 004°28'0 0.0
2014-Aug-22 21:31N 51°54' E 004°28'0 0.0
2014-Aug-22 20:31N 51°54' E 004°28'0 0.0
2014-Aug-22 19:31N 51°54' E 004°28'0 0.0
2014-Aug-22 18:33N 51°54' E 004°28'0 0.0
2014-Aug-22 17:33N 51°54' E 004°28'0 0.0
2014-Aug-22 16:33N 51°54' E 004°28'0 0.0
2014-Aug-22 15:32N 51°54' E 004°28'0 0.0
2014-Aug-22 14:32N 51°54' E 004°28'0 0.0
2014-Aug-22 13:32N 51°54' E 004°28'0 0.0
2014-Aug-22 12:31N 51°54' E 004°28'0 0.0
2014-Aug-22 11:31N 51°54' E 004°28'0 0.0
2014-Aug-22 10:31N 51°54' E 004°28'0 0.0
2014-Aug-22 09:33N 51°54' E 004°28'0 0.0
2014-Aug-22 08:33N 51°54' E 004°28'0 0.0
2014-Aug-22 07:32N 51°54' E 004°28'0 0.0
2014-Aug-22 06:32N 51°54' E 004°28'0 0.0
2014-Aug-22 05:31N 51°54' E 004°28'0 0.0
2014-Aug-22 04:31N 51°54' E 004°28'0 0.0
2014-Aug-22 03:31N 51°54' E 004°28'0 0.0
2014-Aug-22 02:33N 51°54' E 004°28'0 0.0
2014-Aug-22 01:33N 51°54' E 004°28'0 0.0
2014-Aug-22 00:32N 51°54' E 004°28'0 0.0
2014-Aug-21 23:32N 51°54' E 004°28'0 0.0
2014-Aug-21 22:31N 51°54' E 004°28'0 0.0
2014-Aug-21 21:31N 51°54' E 004°28'0 0.0
2014-Aug-21 20:34N 51°54' E 004°28'0 0.0
2014-Aug-21 19:33N 51°54' E 004°28'0 0.0
2014-Aug-21 18:33N 51°54' E 004°28'0 0.0
2014-Aug-21 17:29N 51°54' E 004°28'0 0.0
2014-Aug-21 16:32N 51°54' E 004°28'0 0.0
2014-Aug-21 15:31N 51°54' E 004°28'0 0.0
2014-Aug-21 14:31N 51°54' E 004°28'0 0.0
2014-Aug-21 13:33N 51°54' E 004°28'0 0.0
2014-Aug-21 12:33N 51°54' E 004°28'0 0.0
2014-Aug-21 11:33N 51°54' E 004°28'0 0.0
2014-Aug-21 10:29N 51°54' E 004°28'0 0.0
2014-Aug-21 09:32N 51°54' E 004°28'0 0.0
2014-Aug-21 08:31N 51°54' E 004°28'0 0.0
2014-Aug-21 07:31N 51°54' E 004°28'0 0.0
2014-Aug-21 06:33N 51°54' E 004°28'0 0.0
2014-Aug-21 05:33N 51°54' E 004°28'0 0.0
2014-Aug-21 04:33N 51°54' E 004°28'0 0.0
2014-Aug-21 03:32N 51°54' E 004°28'0 0.0
2014-Aug-21 02:32N 51°54' E 004°28'0 0.0
2014-Aug-21 01:31N 51°54' E 004°28'0 0.0
2014-Aug-21 00:31N 51°54' E 004°28'0 0.0
2014-Aug-20 23:33N 51°54' E 004°28'5 4.6
2014-Aug-20 22:33N 51°54' E 004°21'6 6.1
2014-Aug-20 21:34N 51°50' E 004°29'7 6.6
2014-Aug-20 20:33N 51°47' E 004°38'0 0.0
2014-Aug-20 19:30N 51°47' E 004°38'0 0.0
2014-Aug-20 18:32N 51°47' E 004°38'0 0.0
2014-Aug-20 17:32N 51°47' E 004°38'0 0.0
2014-Aug-20 16:32N 51°47' E 004°38'0 0.0
2014-Aug-20 15:31N 51°47' E 004°38'0 0.0
2014-Aug-20 14:22N 51°47' E 004°38'0 0.0
2014-Aug-20 13:33N 51°47' E 004°38'0 0.0
2014-Aug-20 12:33N 51°47' E 004°38'0 0.0
2014-Aug-20 11:29N 51°47' E 004°38'0 0.0
2014-Aug-20 10:29N 51°47' E 004°38'0 0.0
2014-Aug-20 09:32N 51°47' E 004°38'0 0.0
2014-Aug-20 08:28N 51°47' E 004°38'0 0.0
2014-Aug-20 07:31N 51°47' E 004°38'0 0.0
2014-Aug-20 06:33N 51°47' E 004°38'0 0.0
2014-Aug-20 05:33N 51°47' E 004°38'0 0.0
2014-Aug-20 04:32N 51°47' E 004°38'0 0.0
2014-Aug-20 03:32N 51°47' E 004°38'0 0.0
2014-Aug-20 02:25N 51°47' E 004°38'0 0.0
2014-Aug-20 01:31N 51°47' E 004°38'0 0.0
2014-Aug-20 00:22N 51°47' E 004°38'0 0.0
2014-Aug-19 23:33N 51°47' E 004°38'0 0.0
2014-Aug-19 22:33N 51°47' E 004°38'0 0.0
2014-Aug-19 21:32N 51°47' E 004°38'0 0.0
2014-Aug-19 20:32N 51°47' E 004°38'0 0.0
2014-Aug-19 19:28N 51°47' E 004°38'0 0.0
2014-Aug-19 18:31N 51°47' E 004°38'0 0.0
2014-Aug-19 17:31N 51°47' E 004°38'0 0.0
2014-Aug-19 16:33N 51°47' E 004°38'0 0.0
2014-Aug-19 15:27N 51°47' E 004°38'0 0.0
2014-Aug-19 14:29N 51°47' E 004°38'0 0.0
2014-Aug-19 13:32N 51°47' E 004°38'0 0.0
2014-Aug-19 12:31N 51°47' E 004°38'0 0.0
2014-Aug-19 11:33N 51°47' E 004°38'2 1.6
2014-Aug-19 10:34N 51°48' E 004°36'9 9.1
2014-Aug-19 09:33N 51°51' E 004°22'9 9.0
2014-Aug-19 08:33N 51°57' E 004°11'1111.0
2014-Aug-19 07:31N 52°01' E 003°54'9 9.2
2014-Aug-19 06:33N 52°08' E 003°46'1010.1
2014-Aug-19 05:33N 52°18' E 003°47'20 9.8
2014-Aug-19 03:33N 52°38' E 003°53'13 9.8
2014-Aug-19 02:13N 52°51' E 003°58'44 7.7
2014-Aug-18 20:33N 53°27' E 004°38'7 7.3
2014-Aug-18 19:33N 53°30' E 004°49'7 7.5
2014-Aug-18 18:33N 53°33' E 005°01'7 7.4
2014-Aug-18 17:33N 53°36' E 005°12'7 7.1
2014-Aug-18 16:33N 53°38' E 005°23'7 6.6
2014-Aug-18 15:33N 53°40' E 005°34'6 6.3
2014-Aug-18 14:33N 53°42' E 005°44'6 5.8
2014-Aug-18 13:33N 53°44' E 005°53'6 5.5
2014-Aug-18 12:30N 53°46' E 006°03'52 5.7
2014-Aug-18 03:24N 53°60' E 007°28'4 5.2
2014-Aug-18 02:33N 54°01' E 007°35'5 5.0
2014-Aug-18 01:33N 54°02' E 007°44'5 5.2
2014-Aug-18 00:33N 54°02' E 007°52'46 7.6
2014-Aug-17 18:33N 53°54' E 009°09'7 7.3
2014-Aug-17 17:33N 53°59' E 009°17'5 4.7
2014-Aug-17 16:33N 54°04' E 009°19'7 6.5
2014-Aug-17 15:31N 54°10' E 009°24'  
Track history (hours):
 
Tides and Currents Weather Stations Pressure Air Temp Water Temp Dewpoint Dewpoint Depression Visibility Wind Speed Wind Dir Waves Ship Positions

Flinterbrise

Last reported at 2014-Aug-27 07:30 UTC. Time now 2014-Sep-02 21:26 UTC.
Position N 57°20' E 017°42'.

Length 81 m; draft 5.1 m.

Type: Ship. MMSI: 246044000.

Date/timePositionNaut miles runAvg speedWind from/ knotsBaromVisibWave heightAir tempDewpointWater temp
2014-Aug-27 07:30N 57°20' E 017°42'8 8.5
2014-Aug-27 06:33N 57°13' E 017°37'10 8.3
2014-Aug-27 05:24N 57°04' E 017°31'131 8.6
2014-Aug-26 14:12N 55°28' E 014°52'8 9.2
2014-Aug-26 13:21N 55°24' E 014°40'8 9.2
2014-Aug-26 12:30N 55°18' E 014°31'9 9.5
2014-Aug-26 11:33N 55°11' E 014°21'29 8.9
2014-Aug-26 08:18N 54°55' E 013°38'25 9.0
2014-Aug-26 05:31N 54°47' E 012°56'8 8.8
2014-Aug-26 04:33N 54°44' E 012°43'9 9.1
2014-Aug-26 03:33N 54°39' E 012°30'9 8.9
2014-Aug-26 02:33N 54°34' E 012°18'9 9.2
2014-Aug-26 01:33N 54°25' E 012°11'9 9.3
2014-Aug-26 00:33N 54°25' E 011°55'87 7.8
2014-Aug-25 13:22N 54°11' E 009°27'6 7.6
2014-Aug-25 12:33N 54°06' E 009°20'6 6.1
2014-Aug-25 11:33N 54°00' E 009°18'8 8.2
2014-Aug-25 10:33N 53°54' E 009°09'1 0.8
2014-Aug-25 09:33N 53°53' E 009°08'4 3.8
2014-Aug-25 08:33N 53°52' E 009°02'9 8.5
2014-Aug-25 07:33N 53°50' E 008°48'8 7.5
2014-Aug-25 06:33N 53°56' E 008°39'7 7.1
2014-Aug-25 05:33N 53°59' E 008°28'8 8.0
2014-Aug-25 04:33N 53°59' E 008°15'9 8.6
2014-Aug-25 03:33N 53°58' E 008°00'8 8.2
2014-Aug-25 02:33N 53°57' E 007°46'65 9.0
2014-Aug-24 19:20N 53°40' E 005°59'810.1
2014-Aug-24 18:33N 53°38' E 005°47'1010.4
2014-Aug-24 17:33N 53°35' E 005°30'1010.5
2014-Aug-24 16:33N 53°31' E 005°13'1010.0
2014-Aug-24 15:33N 53°28' E 004°58'10 9.7
2014-Aug-24 14:30N 53°23' E 004°42'73 8.1
2014-Aug-24 05:29N 52°17' E 003°52'8 9.0
2014-Aug-24 04:33N 52°09' E 003°54'9 9.0
2014-Aug-24 03:34N 52°01' E 004°01'9 8.9
2014-Aug-24 02:33N 51°56' E 004°13'8 7.5
2014-Aug-24 01:33N 51°53' E 004°24'1 0.5
2014-Aug-24 00:14N 51°53' E 004°25'0 0.0
2014-Aug-23 23:32N 51°53' E 004°25'0 0.0
2014-Aug-23 22:32N 51°53' E 004°25'0 0.0
2014-Aug-23 20:25N 51°53' E 004°25'0 0.1
2014-Aug-23 19:27N 51°53' E 004°25'2 0.2
2014-Aug-23 03:31N 51°54' E 004°28'0 0.0
2014-Aug-23 02:31N 51°54' E 004°28'0 0.0
2014-Aug-23 01:33N 51°54' E 004°28'0 0.0
2014-Aug-23 00:33N 51°54' E 004°28'0 0.0
2014-Aug-22 23:32N 51°54' E 004°28'0 0.0
2014-Aug-22 22:32N 51°54' E 004°28'0 0.0
2014-Aug-22 21:31N 51°54' E 004°28'0 0.0
2014-Aug-22 20:31N 51°54' E 004°28'0 0.0
2014-Aug-22 19:31N 51°54' E 004°28'0 0.0
2014-Aug-22 18:33N 51°54' E 004°28'0 0.0
2014-Aug-22 17:33N 51°54' E 004°28'0 0.0
2014-Aug-22 16:33N 51°54' E 004°28'0 0.0
2014-Aug-22 15:32N 51°54' E 004°28'0 0.0
2014-Aug-22 14:32N 51°54' E 004°28'0 0.0
2014-Aug-22 13:32N 51°54' E 004°28'0 0.0
2014-Aug-22 12:31N 51°54' E 004°28'0 0.0
2014-Aug-22 11:31N 51°54' E 004°28'0 0.0
2014-Aug-22 10:31N 51°54' E 004°28'0 0.0
2014-Aug-22 09:33N 51°54' E 004°28'0 0.0
2014-Aug-22 08:33N 51°54' E 004°28'0 0.0
2014-Aug-22 07:32N 51°54' E 004°28'0 0.0
2014-Aug-22 06:32N 51°54' E 004°28'0 0.0
2014-Aug-22 05:31N 51°54' E 004°28'0 0.0
2014-Aug-22 04:31N 51°54' E 004°28'0 0.0
2014-Aug-22 03:31N 51°54' E 004°28'0 0.0
2014-Aug-22 02:33N 51°54' E 004°28'0 0.0
2014-Aug-22 01:33N 51°54' E 004°28'0 0.0
2014-Aug-22 00:32N 51°54' E 004°28'0 0.0
2014-Aug-21 23:32N 51°54' E 004°28'0 0.0
2014-Aug-21 22:31N 51°54' E 004°28'0 0.0
2014-Aug-21 21:31N 51°54' E 004°28'0 0.0
2014-Aug-21 20:34N 51°54' E 004°28'0 0.0
2014-Aug-21 19:33N 51°54' E 004°28'0 0.0
2014-Aug-21 18:33N 51°54' E 004°28'0 0.0
2014-Aug-21 17:29N 51°54' E 004°28'0 0.0
2014-Aug-21 16:32N 51°54' E 004°28'0 0.0
2014-Aug-21 15:31N 51°54' E 004°28'0 0.0
2014-Aug-21 14:31N 51°54' E 004°28'0 0.0
2014-Aug-21 13:33N 51°54' E 004°28'0 0.0
2014-Aug-21 12:33N 51°54' E 004°28'0 0.0
2014-Aug-21 11:33N 51°54' E 004°28'0 0.0
2014-Aug-21 10:29N 51°54' E 004°28'0 0.0
2014-Aug-21 09:32N 51°54' E 004°28'0 0.0
2014-Aug-21 08:31N 51°54' E 004°28'0 0.0
2014-Aug-21 07:31N 51°54' E 004°28'0 0.0
2014-Aug-21 06:33N 51°54' E 004°28'0 0.0
2014-Aug-21 05:33N 51°54' E 004°28'0 0.0
2014-Aug-21 04:33N 51°54' E 004°28'0 0.0
2014-Aug-21 03:32N 51°54' E 004°28'0 0.0
2014-Aug-21 02:32N 51°54' E 004°28'0 0.0
2014-Aug-21 01:31N 51°54' E 004°28'0 0.0
2014-Aug-21 00:31N 51°54' E 004°28'0 0.0
2014-Aug-20 23:33N 51°54' E 004°28'5 4.6
2014-Aug-20 22:33N 51°54' E 004°21'6 6.1
2014-Aug-20 21:34N 51°50' E 004°29'7 6.6
2014-Aug-20 20:33N 51°47' E 004°38'0 0.0
2014-Aug-20 19:30N 51°47' E 004°38'0 0.0
2014-Aug-20 18:32N 51°47' E 004°38'0 0.0
2014-Aug-20 17:32N 51°47' E 004°38'0 0.0
2014-Aug-20 16:32N 51°47' E 004°38'0 0.0
2014-Aug-20 15:31N 51°47' E 004°38'0 0.0
2014-Aug-20 14:22N 51°47' E 004°38'0 0.0
2014-Aug-20 13:33N 51°47' E 004°38'0 0.0
2014-Aug-20 12:33N 51°47' E 004°38'0 0.0
2014-Aug-20 11:29N 51°47' E 004°38'0 0.0
2014-Aug-20 10:29N 51°47' E 004°38'0 0.0
2014-Aug-20 09:32N 51°47' E 004°38'0 0.0
2014-Aug-20 08:28N 51°47' E 004°38'0 0.0
2014-Aug-20 07:31N 51°47' E 004°38'0 0.0
2014-Aug-20 06:33N 51°47' E 004°38'0 0.0
2014-Aug-20 05:33N 51°47' E 004°38'0 0.0
2014-Aug-20 04:32N 51°47' E 004°38'0 0.0
2014-Aug-20 03:32N 51°47' E 004°38'0 0.0
2014-Aug-20 02:25N 51°47' E 004°38'0 0.0
2014-Aug-20 01:31N 51°47' E 004°38'0 0.0
2014-Aug-20 00:22N 51°47' E 004°38'0 0.0
2014-Aug-19 23:33N 51°47' E 004°38'0 0.0
2014-Aug-19 22:33N 51°47' E 004°38'0 0.0
2014-Aug-19 21:32N 51°47' E 004°38'0 0.0
2014-Aug-19 20:32N 51°47' E 004°38'0 0.0
2014-Aug-19 19:28N 51°47' E 004°38'0 0.0
2014-Aug-19 18:31N 51°47' E 004°38'0 0.0
2014-Aug-19 17:31N 51°47' E 004°38'0 0.0
2014-Aug-19 16:33N 51°47' E 004°38'0 0.0
2014-Aug-19 15:27N 51°47' E 004°38'0 0.0
2014-Aug-19 14:29N 51°47' E 004°38'0 0.0
2014-Aug-19 13:32N 51°47' E 004°38'0 0.0
2014-Aug-19 12:31N 51°47' E 004°38'0 0.0
2014-Aug-19 11:33N 51°47' E 004°38'2 1.6
2014-Aug-19 10:34N 51°48' E 004°36'9 9.1
2014-Aug-19 09:33N 51°51' E 004°22'9 9.0
2014-Aug-19 08:33N 51°57' E 004°11'1111.0
2014-Aug-19 07:31N 52°01' E 003°54'9 9.2
2014-Aug-19 06:33N 52°08' E 003°46'1010.1
2014-Aug-19 05:33N 52°18' E 003°47'20 9.8
2014-Aug-19 03:33N 52°38' E 003°53'13 9.8
2014-Aug-19 02:13N 52°51' E 003°58'44 7.7
2014-Aug-18 20:33N 53°27' E 004°38'7 7.3
2014-Aug-18 19:33N 53°30' E 004°49'7 7.5
2014-Aug-18 18:33N 53°33' E 005°01'7 7.4
2014-Aug-18 17:33N 53°36' E 005°12'7 7.1
2014-Aug-18 16:33N 53°38' E 005°23'7 6.6
2014-Aug-18 15:33N 53°40' E 005°34'6 6.3
2014-Aug-18 14:33N 53°42' E 005°44'6 5.8
2014-Aug-18 13:33N 53°44' E 005°53'6 5.5
2014-Aug-18 12:30N 53°46' E 006°03'52 5.7
2014-Aug-18 03:24N 53°60' E 007°28'4 5.2
2014-Aug-18 02:33N 54°01' E 007°35'5 5.0
2014-Aug-18 01:33N 54°02' E 007°44'5 5.2
2014-Aug-18 00:33N 54°02' E 007°52'46 7.6
2014-Aug-17 18:33N 53°54' E 009°09'7 7.3
2014-Aug-17 17:33N 53°59' E 009°17'5 4.7
2014-Aug-17 16:33N 54°04' E 009°19'7 6.5
2014-Aug-17 15:31N 54°10' E 009°24'  

Dump ship's entire track history